Time;durP1;ratioP1;P1;durP2;ratioP2;P2;SDS_P1;SDS_P2;PMS_P1;PMS_P2;Temp;Humidity;BMP_temperature;BMP_pressure;BME280_temperature;BME280_humidity;BME280_pressure;Samples;Min_cycle;Max_cycle;Signal;HPM_P1;HPM_P2
2022/03/14 00:03:08;;;;;;;1999.90;999.90;;;;;;;6.51;33.47;101731.69;15676596;28;20484;-61
2022/03/14 00:10:41;;;;;;;1999.90;999.90;;;;;;;6.42;33.50;101734.19;15675877;28;20044;-62
2022/03/14 00:18:15;;;;;;;1999.90;999.90;;;;;;;6.39;33.91;101732.00;15676539;28;20033;-62
2022/03/14 00:25:47;;;;;;;1999.90;999.90;;;;;;;6.49;33.45;101728.38;15676780;28;20052;-62
2022/03/14 00:33:21;;;;;;;1999.90;999.90;;;;;;;6.31;33.43;101727.00;15679620;28;20076;-63
2022/03/14 00:40:53;;;;;;;1999.90;999.90;;;;;;;6.13;34.35;101719.28;15676888;28;20029;-61
2022/03/14 00:48:27;;;;;;;1999.90;999.90;;;;;;;6.25;34.32;101730.88;15680737;28;20056;-61
2022/03/14 00:56:01;;;;;;;1999.90;999.90;;;;;;;6.00;34.56;101721.50;15679079;28;20067;-62
2022/03/14 01:03:35;;;;;;;1999.90;999.90;;;;;;;6.16;34.36;101719.56;15661882;28;20038;-61
2022/03/14 01:11:07;;;;;;;1999.90;999.90;;;;;;;5.92;34.86;101712.91;15675399;28;20080;-61
2022/03/14 01:18:41;;;;;;;1999.90;999.90;;;;;;;5.77;35.24;101702.66;15672041;28;20158;-60
2022/03/14 01:26:13;;;;;;;1999.90;999.90;;;;;;;5.60;35.20;101707.63;15672596;28;20052;-60
2022/03/14 01:33:48;;;;;;;1999.90;999.90;;;;;;;5.78;34.55;101716.22;15670108;28;20045;-62
2022/03/14 01:41:22;;;;;;;1999.90;999.90;;;;;;;5.63;35.29;101724.53;15672013;28;20048;-62
2022/03/14 01:48:56;;;;;;;1999.90;999.90;;;;;;;5.58;34.92;101721.75;15674436;28;20413;-62
2022/03/14 01:56:30;;;;;;;1999.90;999.90;;;;;;;5.47;35.00;101729.19;15671901;28;20068;-60
2022/03/14 02:04:08;;;;;;;1999.90;999.90;;;;;;;5.56;35.04;101729.50;15667895;28;20045;-62
2022/03/14 02:11:51;;;;;;;1999.90;999.90;;;;;;;5.43;35.48;101724.50;15669731;28;20112;-63
2022/03/14 02:19:24;;;;;;;1999.90;999.90;;;;;;;5.52;34.91;101714.53;15669013;28;20045;-61
2022/03/14 02:26:58;;;;;;;1999.90;999.90;;;;;;;5.23;36.17;101716.97;15668502;28;20041;-61
2022/03/14 02:34:30;;;;;;;1999.90;999.90;;;;;;;5.09;35.78;101713.88;15668882;28;20047;-61
2022/03/14 02:42:04;;;;;;;1999.90;999.90;;;;;;;5.06;36.13;101714.44;15654304;28;20185;-61
2022/03/14 02:49:38;;;;;;;1999.90;999.90;;;;;;;4.96;36.20;101725.47;15639333;28;20065;-61
2022/03/14 02:57:12;;;;;;;1999.90;999.90;;;;;;;5.00;35.88;101736.81;15659288;28;20087;-60
2022/03/14 03:04:44;;;;;;;1999.90;999.90;;;;;;;4.77;36.52;101732.56;15668272;28;20044;-61
2022/03/14 03:12:18;;;;;;;1999.90;999.90;;;;;;;4.80;37.16;101755.00;15671410;28;20047;-61
2022/03/14 03:19:50;;;;;;;1999.90;999.90;;;;;;;4.30;37.94;101752.78;15667831;28;20064;-60
2022/03/14 03:27:24;;;;;;;1999.90;999.90;;;;;;;4.50;37.71;101752.91;15666887;28;20502;-61
2022/03/14 03:34:56;;;;;;;;;;;;;;;4.29;38.04;101760.25;15676524;28;20064;-61
2022/03/14 03:42:30;;;;;;;1999.90;999.90;;;;;;;4.23;38.11;101758.53;15678038;28;20311;-59
2022/03/14 03:50:03;;;;;;;1999.90;999.90;;;;;;;4.00;38.08;101765.25;15679331;28;20510;-60
2022/03/14 03:57:36;;;;;;;1999.90;999.90;;;;;;;4.07;38.15;101766.97;15676940;28;20290;-61
2022/03/14 04:05:10;;;;;;;;;;;;;;;4.13;38.55;101772.25;15678093;28;20049;-62
2022/03/14 04:12:44;;;;;;;1999.90;999.90;;;;;;;4.06;38.74;101768.88;15675668;28;20038;-62
2022/03/14 04:20:16;;;;;;;1999.90;999.90;;;;;;;3.97;38.31;101773.25;15677584;28;20272;-61
2022/03/14 04:27:49;;;;;;;1999.90;999.90;;;;;;;3.95;38.91;101770.72;15673423;28;20057;-63
2022/03/14 04:35:21;;;;;;;1999.90;999.90;;;;;;;3.87;38.71;101767.63;15671366;28;20524;-59
2022/03/14 04:42:55;;;;;;;1999.90;999.90;;;;;;;3.84;38.86;101773.66;15661616;28;20116;-60
2022/03/14 04:50:27;;;;;;;1999.90;999.90;;;;;;;3.89;38.50;101785.59;15670468;28;20072;-60
2022/03/14 04:58:00;;;;;;;1999.90;999.90;;;;;;;3.71;38.67;101788.72;15658030;28;20536;-59
2022/03/14 05:05:33;;;;;;;;;;;;;;;3.65;38.92;101785.09;15666103;28;20029;-61
2022/03/14 05:13:06;;;;;;;1999.90;999.90;;;;;;;3.54;39.15;101797.09;15673483;28;19952;-61
2022/03/14 05:20:39;;;;;;;1999.90;999.90;;;;;;;3.51;39.19;101799.56;15670756;28;20155;-60
2022/03/14 05:28:13;;;;;;;1999.90;999.90;;;;;;;3.63;38.97;101803.84;15664746;28;20516;-61
2022/03/14 05:35:45;;;;;;;;;;;;;;;3.72;39.04;101801.44;15667365;28;20297;-60
2022/03/14 05:43:18;;;;;;;1999.90;999.90;;;;;;;3.81;38.92;101794.34;15671672;28;19927;-60
2022/03/14 05:50:50;;;;;;;1999.90;999.90;;;;;;;3.89;38.75;101790.28;15666195;28;20418;-61
2022/03/14 05:58:26;;;;;;;1999.90;999.90;;;;;;;3.93;38.75;101802.47;15657523;28;20059;-60
2022/03/14 06:05:58;;;;;;;1999.90;999.90;;;;;;;3.85;38.94;101816.75;15664779;28;20033;-60
2022/03/14 06:13:31;;;;;;;1999.90;999.90;;;;;;;4.03;38.88;101821.88;15670203;28;20045;-62
2022/03/14 06:21:03;;;;;;;1999.90;999.90;;;;;;;3.89;38.77;101823.44;15651908;28;20045;-62
2022/03/14 06:28:37;;;;;;;1999.90;999.90;;;;;;;4.36;37.98;101826.31;15618632;28;20042;-61
2022/03/14 06:36:09;;;;;;;1999.90;999.90;;;;;;;4.47;37.59;101829.97;15624131;28;20053;-61
2022/03/14 06:43:43;;;;;;;1999.90;999.90;;;;;;;4.78;37.54;101831.84;15623053;28;20394;-61
2022/03/14 06:51:15;;;;;;;1999.90;999.90;;;;;;;5.54;36.68;101845.25;15667430;28;20036;-61
2022/03/14 06:58:48;;;;;;;1999.90;999.90;;;;;;;6.85;33.83;101852.00;15634740;28;20081;-59
2022/03/14 07:06:20;;;;;;;1999.90;999.90;;;;;;;7.55;33.45;101867.88;15670855;28;20052;-59
2022/03/14 07:13:54;;;;;;;1999.90;999.90;;;;;;;8.34;32.39;101870.47;15678978;28;20077;-57
2022/03/14 07:21:28;;;;;;;1999.90;999.90;;;;;;;9.03;31.28;101879.56;15689102;28;20052;-60
2022/03/14 07:29:02;;;;;;;1999.90;999.90;;;;;;;9.49;30.41;101890.22;15680234;28;20785;-59
2022/03/14 07:36:34;;;;;;;1999.90;999.90;;;;;;;9.16;30.13;101883.59;15676938;28;20438;-61
2022/03/14 07:44:08;;;;;;;1999.90;999.90;;;;;;;10.12;29.77;101887.94;15660742;28;20045;-57
2022/03/14 07:51:40;;;;;;;1999.90;999.90;;;;;;;10.38;29.12;101896.78;15677267;28;20052;-63
2022/03/14 07:59:13;;;;;;;1999.90;999.90;;;;;;;11.15;28.79;101895.44;15676354;28;20041;-61
2022/03/14 08:06:45;;;;;;;1999.90;999.90;;;;;;;11.15;27.38;101901.03;15660188;28;20064;-59
2022/03/14 08:14:19;;;;;;;1999.90;999.90;;;;;;;12.58;25.89;101895.97;15675510;28;20593;-61
2022/03/14 08:21:51;;;;;;;1999.90;999.90;;;;;;;12.34;26.25;101891.50;15658484;28;20071;-60
2022/03/14 08:29:25;;;;;;;1999.90;999.90;;;;;;;12.41;25.89;101896.69;15677007;28;20045;-60
2022/03/14 08:37:01;;;;;;;1999.90;999.90;;;;;;;12.74;24.56;101911.25;15677394;28;20049;-60
2022/03/14 08:44:34;;;;;;;1999.90;999.90;;;;;;;13.94;23.54;101896.13;15666402;28;20041;-61
2022/03/14 08:52:06;;;;;;;1999.90;999.90;;;;;;;14.67;23.02;101899.97;15641341;28;20487;-62
2022/03/14 08:59:40;;;;;;;1999.90;999.90;;;;;;;13.64;23.54;101900.66;15618380;28;20041;-62
2022/03/14 09:07:12;;;;;;;1999.90;999.90;;;;;;;14.99;23.21;101892.16;15600817;28;20102;-62
2022/03/14 09:14:46;;;;;;;1999.90;999.90;;;;;;;14.54;23.34;101895.38;15635293;28;20044;-66
2022/03/14 09:22:19;;;;;;;1999.90;999.90;;;;;;;15.29;23.50;101881.81;15662778;28;20041;-62
2022/03/14 09:29:53;;;;;;;1999.90;999.90;;;;;;;15.73;22.28;101879.63;15671252;28;20048;-59
2022/03/14 09:37:25;;;;;;;1999.90;999.90;;;;;;;15.77;21.64;101881.44;15651613;28;20131;-63
2022/03/14 09:44:59;;;;;;;1999.90;999.90;;;;;;;17.32;20.84;101878.38;15676223;28;20670;-61
2022/03/14 09:52:31;;;;;;;1999.90;999.90;;;;;;;17.05;20.50;101884.66;15664254;28;20056;-60
2022/03/14 10:00:07;;;;;;;1999.90;999.90;;;;;;;17.96;19.29;101893.81;15655710;28;20041;-63
2022/03/14 10:07:47;;;;;;;1999.90;999.90;;;;;;;17.53;19.29;101890.38;15662104;28;20073;-62
2022/03/14 10:15:25;;;;;;;1999.90;999.90;;;;;;;18.35;19.14;101906.31;15659142;28;20536;-61
2022/03/14 10:23:00;;;;;;;1999.90;999.90;;;;;;;19.71;18.14;101903.25;15657896;28;20127;-60
2022/03/14 10:30:35;;;;;;;1999.90;999.90;;;;;;;19.71;18.48;101896.78;15674926;28;20467;-61
2022/03/14 10:38:09;;;;;;;1999.90;999.90;;;;;;;19.48;18.27;101903.03;15659802;28;20103;-60
2022/03/14 10:45:46;;;;;;;1999.90;999.90;;;;;;;18.45;19.07;101919.97;15621634;28;20049;-61
2022/03/14 10:53:20;;;;;;;1999.90;999.90;;;;;;;20.46;18.28;101905.81;15670362;28;20052;-61
2022/03/14 11:00:56;;;;;;;1999.90;999.90;;;;;;;20.49;17.59;101909.94;15668165;28;20045;-62
2022/03/14 11:08:37;;;;;;;1999.90;999.90;;;;;;;21.17;17.98;101928.34;15674392;28;20498;-61
2022/03/14 11:16:19;;;;;;;1999.90;999.90;;;;;;;22.49;16.95;101937.03;15672898;28;20132;-62
2022/03/14 11:23:53;;;;;;;1999.90;999.90;;;;;;;21.02;17.88;101932.91;15667073;28;20045;-63
2022/03/14 11:31:34;;;;;;;1999.90;999.90;;;;;;;20.37;18.53;101938.38;15669725;28;20102;-62
2022/03/14 11:39:27;;;;;;;;;;;;;;;21.09;18.07;101940.75;15650899;28;20108;-61
2022/03/14 11:47:03;;;;;;;1999.90;999.90;;;;;;;21.49;17.95;101938.28;15666553;28;20027;-62
2022/03/14 11:54:48;;;;;;;1999.90;999.90;;;;;;;18.16;20.72;101935.22;15678394;28;20061;-62
2022/03/14 12:02:40;;;;;;;1999.90;999.90;;;;;;;16.92;22.00;101935.41;15681888;28;20127;-62
2022/03/14 12:10:26;;;;;;;1999.90;999.90;;;;;;;16.97;22.27;101935.16;15675932;28;20567;-62
2022/03/14 12:18:00;;;;;;;1999.90;999.90;;;;;;;16.08;23.35;101957.09;15681447;28;20476;-61
2022/03/14 12:25:41;;;;;;;1999.90;999.90;;;;;;;16.87;22.84;101960.97;15680222;28;20048;-61
2022/03/14 12:33:30;;;;;;;1999.90;999.90;;;;;;;18.56;21.79;101959.84;15680960;28;20075;-61
2022/03/14 12:41:03;;;;;;;1999.90;999.90;;;;;;;19.67;20.50;101975.13;15620508;28;20042;-62
2022/03/14 12:48:53;;;;;;;1999.90;999.90;;;;;;;18.31;20.75;101964.72;15669308;28;20160;-61
2022/03/14 12:56:27;;;;;;;1999.90;999.90;;;;;;;19.50;20.72;101956.47;15681509;28;20158;-62
2022/03/14 13:04:01;;;;;;;1999.90;999.90;;;;;;;21.22;19.09;101962.88;15679160;28;20437;-63
2022/03/14 13:11:36;;;;;;;1999.90;999.90;;;;;;;20.96;19.14;101965.63;15680942;28;20056;-62
2022/03/14 13:19:17;;;;;;;1999.90;999.90;;;;;;;23.17;17.56;101970.03;15680711;28;20041;-63
2022/03/14 13:26:49;;;;;;;1999.90;999.90;;;;;;;23.70;17.10;101969.78;15678468;28;20055;-62
2022/03/14 13:34:26;;;;;;;1999.90;999.90;;;;;;;20.69;19.58;101975.97;15678829;28;20051;-62
2022/03/14 13:41:58;;;;;;;1999.90;999.90;;;;;;;20.75;19.73;101969.66;15680733;28;20041;-61
2022/03/14 13:49:32;;;;;;;1999.90;999.90;;;;;;;19.73;21.68;101979.34;15681572;28;20124;-61
2022/03/14 13:57:07;;;;;;;1999.90;999.90;;;;;;;18.50;21.69;101981.06;15678519;28;20052;-62
2022/03/14 14:04:46;;;;;;;1999.90;999.90;;;;;;;18.20;21.90;101970.03;15695477;28;20045;-61
2022/03/14 14:12:22;;;;;;;1999.90;999.90;;;;;;;18.50;21.53;101972.56;15676125;28;20051;-62
2022/03/14 14:20:09;;;;;;;1999.90;999.90;;;;;;;16.91;23.77;101976.03;15693847;28;20053;-61
2022/03/14 14:27:50;;;;;;;1999.90;999.90;;;;;;;15.85;25.43;101989.50;15675686;28;20159;-61
2022/03/14 14:35:23;;;;;;;1999.90;999.90;;;;;;;15.78;26.10;101997.66;15691304;28;20072;-60
2022/03/14 14:42:55;;;;;;;;;;;;;;;15.46;26.22;102013.13;15688465;28;20513;-61
2022/03/14 14:50:28;;;;;;;1999.90;999.90;;;;;;;15.44;27.20;102026.69;15618355;28;20445;-61
2022/03/14 14:58:01;;;;;;;1999.90;999.90;;;;;;;14.87;27.50;102029.72;15672281;28;20049;-60
2022/03/14 15:05:34;;;;;;;1999.90;999.90;;;;;;;14.76;27.86;102036.84;15631842;28;20052;-60
2022/03/14 15:13:07;;;;;;;1999.90;999.90;;;;;;;15.01;27.85;102044.47;15644628;28;20112;-62
2022/03/14 15:20:40;;;;;;;1999.90;999.90;;;;;;;15.10;28.37;102056.50;15668573;28;20037;-61
2022/03/14 15:28:12;;;;;;;1999.90;999.90;;;;;;;15.22;28.58;102067.09;15678361;28;20041;-61
2022/03/14 15:35:46;;;;;;;1999.90;999.90;;;;;;;14.85;29.68;102066.59;15681347;28;20037;-59
2022/03/14 15:43:18;;;;;;;1999.90;999.90;;;;;;;14.70;29.51;102064.28;15667068;28;20095;-60
2022/03/14 15:50:52;;;;;;;1999.90;999.90;;;;;;;14.79;30.20;102083.94;15681758;28;20053;-60
2022/03/14 15:58:24;;;;;;;;;;;;;;;14.67;31.86;102088.22;15662478;28;20059;-61
2022/03/14 16:05:58;;;;;;;1999.90;999.90;;;;;;;14.56;32.98;102097.28;15683003;28;20039;-61
2022/03/14 16:13:31;;;;;;;;;;;;;;;14.41;35.57;102106.97;15686130;28;20040;-62
2022/03/14 16:21:04;;;;;;;1999.90;999.90;;;;;;;14.53;38.51;102129.66;15677543;28;20335;-61
2022/03/14 16:28:38;;;;;;;1999.90;999.90;;;;;;;13.47;44.34;102124.97;15678835;28;20114;-61
2022/03/14 16:36:12;;;;;;;1999.90;999.90;;;;;;;12.60;50.19;102137.28;15675507;28;20048;-60
2022/03/14 16:43:44;;;;;;;1999.90;999.90;;;;;;;12.20;54.13;102156.59;15677246;28;20087;-60
2022/03/14 16:51:17;;;;;;;1999.90;999.90;;;;;;;11.90;57.47;102162.75;15647346;28;20486;-61
2022/03/14 16:58:50;;;;;;;1999.90;999.90;;;;;;;11.72;59.04;102170.84;15670068;28;20049;-59
2022/03/14 17:06:24;;;;;;;1999.90;999.90;;;;;;;12.00;58.39;102176.56;15675349;28;20044;-60
2022/03/14 17:13:56;;;;;;;1999.90;999.90;;;;;;;12.33;57.68;102185.72;15676095;28;20075;-60
2022/03/14 17:21:29;;;;;;;1999.90;999.90;;;;;;;12.16;59.58;102197.50;15677381;28;20045;-59
2022/03/14 17:29:02;;;;;;;1999.90;999.90;;;;;;;11.76;62.58;102211.03;15675725;28;20437;-60
2022/03/14 17:36:36;;;;;;;203.87;186.43;;;;;;;11.84;64.08;102218.78;15670964;28;20045;-61
2022/03/14 17:44:08;;;;;;;413.50;379.17;;;;;;;11.33;66.50;102215.09;15669533;28;20482;-62
2022/03/14 17:51:42;;;;;;;462.67;427.58;;;;;;;11.37;67.53;102208.59;15671862;28;20600;-61
2022/03/14 17:59:14;;;;;;;506.20;464.65;;;;;;;11.32;68.47;102222.63;15671081;28;20417;-63
2022/03/14 18:06:47;;;;;;;545.45;500.70;;;;;;;11.24;70.00;102231.69;15674844;28;20045;-62
2022/03/14 18:14:20;;;;;;;637.63;582.05;;;;;;;10.99;71.32;102236.50;15670330;28;20111;-60
2022/03/14 18:21:55;;;;;;;628.97;570.63;;;;;;;10.96;73.04;102239.91;15664162;28;20506;-62
2022/03/14 18:29:27;;;;;;;614.03;559.33;;;;;;;11.17;72.81;102242.44;15671127;28;20053;-61
2022/03/14 18:37:00;;;;;;;657.47;597.42;;;;;;;10.99;74.18;102242.09;15669222;28;20047;-62
2022/03/14 18:44:34;;;;;;;593.45;540.53;;;;;;;10.71;75.44;102251.38;15666366;28;20063;-61
2022/03/14 18:52:09;;;;;;;554.30;506.63;;;;;;;10.71;75.58;102256.94;15669469;28;20091;-61
2022/03/14 18:59:42;;;;;;;567.97;516.15;;;;;;;10.62;76.67;102267.09;15668158;28;20140;-62
2022/03/14 19:07:15;;;;;;;509.65;464.70;;;;;;;10.86;76.34;102264.34;15670132;28;20049;-62
2022/03/14 19:14:47;;;;;;;;;;;;;;;10.81;76.54;102267.16;15666479;28;20291;-62
2022/03/14 19:22:21;;;;;;;572.97;522.75;;;;;;;10.86;76.30;102276.34;15673502;28;19964;-62
2022/03/14 19:29:53;;;;;;;572.05;520.30;;;;;;;10.85;75.96;102274.66;15673362;28;20048;-61
2022/03/14 19:37:27;;;;;;;588.08;537.67;;;;;;;10.96;75.69;102286.56;15673756;28;20045;-61
2022/03/14 19:45:01;;;;;;;544.33;496.25;;;;;;;10.85;76.04;102291.44;15671534;28;20124;-63
2022/03/14 19:52:35;;;;;;;;;;;;;;;10.94;75.63;102289.66;15658918;28;20470;-61
2022/03/14 20:00:08;;;;;;;631.40;575.00;;;;;;;10.84;75.84;102300.09;15666834;28;20007;-60
2022/03/14 20:07:45;;;;;;;555.97;509.30;;;;;;;10.82;76.17;102305.13;15670910;28;20045;-60
2022/03/14 20:15:20;;;;;;;592.53;541.38;;;;;;;10.70;76.36;102308.34;15677929;28;20040;-62
2022/03/14 20:22:54;;;;;;;534.97;491.35;;;;;;;10.77;76.66;102313.56;15682641;28;20037;-61
2022/03/14 20:30:26;;;;;;;533.15;489.88;;;;;;;10.83;76.47;102316.00;15681970;28;20049;-60
2022/03/14 20:37:59;;;;;;;592.67;533.78;;;;;;;10.68;76.56;102325.38;15681302;28;20526;-60
2022/03/14 20:45:31;;;;;;;480.85;443.70;;;;;;;10.59;77.39;102315.97;15680253;28;20500;-62
2022/03/14 20:53:05;;;;;;;469.30;430.13;;;;;;;10.54;77.99;102320.81;15678812;28;20053;-61
2022/03/14 21:00:37;;;;;;;;;;;;;;;10.37;78.27;102324.00;15681601;28;20056;-58
2022/03/14 21:08:13;;;;;;;575.38;525.42;;;;;;;10.29;79.26;102322.69;15672218;28;19921;-64
2022/03/14 21:15:45;;;;;;;544.40;496.88;;;;;;;10.33;79.30;102322.94;15673904;28;20098;-62
2022/03/14 21:23:18;;;;;;;521.72;478.88;;;;;;;10.51;78.58;102321.38;15707181;28;20072;-62
2022/03/14 21:30:54;;;;;;;503.80;462.67;;;;;;;10.54;78.55;102324.41;15679229;28;20045;-62
2022/03/14 21:38:28;;;;;;;647.47;587.90;;;;;;;10.38;79.33;102320.09;15645564;28;20445;-62
2022/03/14 21:46:00;;;;;;;527.40;483.55;;;;;;;10.61;78.67;102326.84;15674843;28;20053;-61
2022/03/14 21:53:34;;;;;;;522.22;480.50;;;;;;;10.54;78.47;102327.22;15662454;28;20537;-62
2022/03/14 22:01:06;;;;;;;435.13;399.63;;;;;;;10.64;78.38;102337.44;15646974;28;20131;-62
2022/03/14 22:08:40;;;;;;;536.17;488.60;;;;;;;10.50;79.01;102317.75;15676717;28;20051;-61
2022/03/14 22:16:12;;;;;;;563.88;518.55;;;;;;;10.37;78.85;102324.00;15642300;28;20064;-65
2022/03/14 22:23:47;;;;;;;477.23;439.38;;;;;;;10.28;80.01;102326.59;15615567;28;20447;-60
2022/03/14 22:31:20;;;;;;;480.80;443.10;;;;;;;10.27;79.85;102330.50;15670151;28;20159;-62
2022/03/14 22:38:54;;;;;;;486.23;449.17;;;;;;;10.34;79.60;102319.84;15674875;28;20040;-61
2022/03/14 22:46:26;;;;;;;511.75;470.92;;;;;;;10.56;78.54;102324.13;15675506;28;20065;-62
2022/03/14 22:54:00;;;;;;;489.20;450.13;;;;;;;10.49;78.73;102332.00;15675283;28;20140;-61
2022/03/14 23:01:31;;;;;;;;;;;;;;;10.70;77.67;102325.09;15675904;28;20354;-62
2022/03/14 23:09:06;;;;;;;434.40;401.63;;;;;;;10.62;78.54;102322.94;15674760;28;20267;-62
2022/03/14 23:16:40;;;;;;;450.25;414.17;;;;;;;10.51;78.19;102333.34;15690982;28;20045;-61
2022/03/14 23:24:15;;;;;;;464.10;430.67;;;;;;;10.37;78.36;102329.59;15674428;28;20045;-58
2022/03/14 23:31:50;;;;;;;430.38;396.45;;;;;;;10.18;78.72;102334.19;15675091;28;20536;-60
2022/03/14 23:39:24;;;;;;;425.60;390.73;;;;;;;10.08;78.62;102337.88;15625248;28;20038;-62
2022/03/14 23:46:56;;;;;;;433.92;398.02;;;;;;;9.89;78.65;102340.53;15675859;28;20048;-62
2022/03/14 23:54:29;;;;;;;472.05;434.00;;;;;;;9.81;78.41;102349.53;15683862;28;20055;-63
